createdAt,value
2018-06-04T00:00:05.538Z,0.00
2018-06-04T00:01:05.536Z,0.00
2018-06-04T00:02:05.540Z,0.00
2018-06-04T00:03:05.548Z,0.00
2018-06-04T00:04:05.543Z,0.00
2018-06-04T00:05:05.547Z,0.00
2018-06-04T00:06:05.545Z,0.00
2018-06-04T00:07:05.547Z,0.00
2018-06-04T00:08:05.549Z,0.00
2018-06-04T00:09:05.554Z,0.00
2018-06-04T00:10:05.554Z,0.00
2018-06-04T00:11:05.551Z,0.00
2018-06-04T00:12:05.559Z,0.00
2018-06-04T00:13:05.554Z,0.00
2018-06-04T00:14:05.558Z,0.00
2018-06-04T00:15:05.558Z,0.00
2018-06-04T00:16:05.557Z,0.00
2018-06-04T00:17:05.557Z,0.00
2018-06-04T00:18:05.562Z,0.00
2018-06-04T00:19:05.557Z,0.00
2018-06-04T00:20:05.560Z,0.00
2018-06-04T00:21:05.561Z,0.00
2018-06-04T00:22:05.562Z,0.00
2018-06-04T00:23:05.603Z,0.00
2018-06-04T00:24:05.568Z,0.00
2018-06-04T00:25:05.568Z,0.00
2018-06-04T00:26:05.570Z,0.00
2018-06-04T00:27:05.569Z,0.00
2018-06-04T00:28:05.571Z,0.00
2018-06-04T00:29:05.570Z,0.00
2018-06-04T00:30:05.576Z,0.00
2018-06-04T00:31:05.573Z,0.00
2018-06-04T00:32:05.572Z,0.00
2018-06-04T00:33:05.575Z,0.00
2018-06-04T00:34:05.571Z,0.00
2018-06-04T00:35:05.576Z,0.00
2018-06-04T00:36:05.576Z,0.00
2018-06-04T00:37:05.576Z,0.00
2018-06-04T00:38:05.581Z,0.00
2018-06-04T00:39:05.581Z,0.00
2018-06-04T00:40:05.579Z,0.00
2018-06-04T00:41:05.583Z,0.00
2018-06-04T00:42:05.583Z,0.00
2018-06-04T00:43:05.586Z,0.00
2018-06-04T00:44:05.586Z,0.00
2018-06-04T00:45:05.586Z,0.00
2018-06-04T00:46:05.589Z,0.00
2018-06-04T00:47:05.592Z,0.00
2018-06-04T00:48:05.590Z,0.00
2018-06-04T00:49:05.592Z,0.00
2018-06-04T00:50:05.593Z,0.00
2018-06-04T00:51:05.593Z,0.00
2018-06-04T00:52:05.593Z,0.00
2018-06-04T00:53:05.596Z,0.00
2018-06-04T00:54:05.597Z,0.00
2018-06-04T00:55:05.596Z,0.00
2018-06-04T00:56:05.596Z,0.00
2018-06-04T00:57:05.597Z,0.00
2018-06-04T00:58:05.607Z,0.00
2018-06-04T00:59:05.605Z,0.00
2018-06-04T01:00:05.602Z,0.00
2018-06-04T01:01:05.604Z,0.00
2018-06-04T01:02:05.604Z,0.00
2018-06-04T01:03:05.604Z,0.00
2018-06-04T01:04:05.609Z,0.00
2018-06-04T01:05:05.609Z,0.00
2018-06-04T01:06:05.613Z,0.00
2018-06-04T01:07:05.608Z,0.00
2018-06-04T01:08:05.616Z,0.00
2018-06-04T01:09:05.614Z,0.00
2018-06-04T01:10:05.616Z,0.00
2018-06-04T01:11:05.610Z,0.00
2018-06-04T01:12:05.614Z,0.00
2018-06-04T01:13:05.611Z,0.00
2018-06-04T01:14:05.615Z,0.00
2018-06-04T01:15:05.616Z,0.00
2018-06-04T01:16:05.617Z,0.00
2018-06-04T01:17:05.625Z,0.00
2018-06-04T01:18:05.630Z,0.00
2018-06-04T01:19:05.620Z,0.00
2018-06-04T01:20:05.625Z,0.00
2018-06-04T01:21:05.621Z,0.00
2018-06-04T01:22:05.624Z,0.00
2018-06-04T01:23:05.624Z,0.00
2018-06-04T01:24:05.634Z,0.00
2018-06-04T01:25:05.633Z,0.00
2018-06-04T01:26:05.631Z,0.00
2018-06-04T01:27:05.629Z,0.00
2018-06-04T01:28:05.629Z,0.00
2018-06-04T01:29:05.631Z,0.00
2018-06-04T01:30:05.628Z,0.00
2018-06-04T01:31:05.630Z,0.00
2018-06-04T01:32:05.635Z,0.00
2018-06-04T01:33:05.633Z,0.00
2018-06-04T01:34:05.635Z,0.00
2018-06-04T01:35:05.636Z,0.00
2018-06-04T01:36:05.638Z,0.00
2018-06-04T01:37:05.640Z,0.00
2018-06-04T01:38:05.641Z,0.00
2018-06-04T01:39:05.642Z,0.00
2018-06-04T01:40:05.642Z,0.00
2018-06-04T01:41:05.697Z,0.00
2018-06-04T01:42:05.654Z,0.00
2018-06-04T01:43:05.642Z,0.00
2018-06-04T01:44:05.646Z,0.00
2018-06-04T01:45:05.647Z,0.00
2018-06-04T01:46:05.646Z,0.00
2018-06-04T01:47:05.648Z,0.00
2018-06-04T01:48:05.650Z,0.00
2018-06-04T01:49:05.647Z,0.00
2018-06-04T01:50:05.650Z,0.00
2018-06-04T01:51:05.655Z,0.00
2018-06-04T01:52:05.653Z,0.00
2018-06-04T01:53:05.654Z,0.00
2018-06-04T01:54:05.654Z,0.00
2018-06-04T01:55:05.656Z,0.00
2018-06-04T01:56:05.657Z,0.00
2018-06-04T01:57:05.662Z,0.00
2018-06-04T01:58:05.660Z,0.00
2018-06-04T01:59:05.663Z,0.00
2018-06-04T02:00:05.659Z,0.00
2018-06-04T02:01:05.665Z,0.00
2018-06-04T02:02:05.662Z,0.00
2018-06-04T02:03:05.665Z,0.00
2018-06-04T02:04:05.664Z,4.00
2018-06-04T02:05:05.665Z,4.00
2018-06-04T02:06:05.663Z,4.00
2018-06-04T02:07:05.666Z,0.00
2018-06-04T02:08:05.668Z,0.00
2018-06-04T02:09:05.670Z,4.00
2018-06-04T02:10:05.671Z,4.00
2018-06-04T02:11:05.675Z,0.00
2018-06-04T02:12:05.672Z,4.00
2018-06-04T02:13:05.673Z,4.00
2018-06-04T02:14:05.673Z,4.00
2018-06-04T02:15:05.683Z,4.00
2018-06-04T02:16:05.677Z,4.00
2018-06-04T02:17:05.687Z,8.00
2018-06-04T02:18:05.678Z,8.00
2018-06-04T02:19:05.675Z,8.00
2018-06-04T02:20:05.679Z,8.00
2018-06-04T02:21:05.681Z,8.00
2018-06-04T02:22:05.681Z,8.00
2018-06-04T02:23:05.681Z,12.00
2018-06-04T02:24:05.685Z,16.00
2018-06-04T02:25:05.690Z,16.00
2018-06-04T02:26:05.684Z,16.00
2018-06-04T02:27:05.683Z,20.00
2018-06-04T02:28:05.706Z,24.00
2018-06-04T02:29:05.688Z,24.00
2018-06-04T02:30:05.689Z,28.00
2018-06-04T02:31:05.689Z,32.00
2018-06-04T02:32:05.692Z,36.00
2018-06-04T02:33:05.691Z,36.00
2018-06-04T02:34:05.691Z,44.00
2018-06-04T02:35:05.695Z,44.00
2018-06-04T02:36:05.696Z,52.00
2018-06-04T02:37:05.693Z,52.00
2018-06-04T02:38:05.694Z,60.00
2018-06-04T02:39:05.693Z,68.00
2018-06-04T02:40:05.696Z,72.00
2018-06-04T02:41:05.698Z,76.00
2018-06-04T02:42:05.696Z,84.00
2018-06-04T02:43:05.704Z,88.00
2018-06-04T02:44:05.698Z,96.00
2018-06-04T02:45:05.701Z,104.00
2018-06-04T02:46:05.702Z,116.00
2018-06-04T02:47:05.701Z,124.00
2018-06-04T02:48:05.701Z,128.00
2018-06-04T02:49:05.708Z,140.00
2018-06-04T02:50:05.802Z,148.00
2018-06-04T02:51:05.709Z,160.00
2018-06-04T02:52:05.705Z,168.00
2018-06-04T02:53:05.706Z,176.00
2018-06-04T02:54:05.710Z,192.00
2018-06-04T02:55:05.708Z,200.00
2018-06-04T02:56:05.725Z,212.00
2018-06-04T02:57:05.707Z,224.00
2018-06-04T02:58:05.706Z,236.00
2018-06-04T02:59:05.709Z,252.00
2018-06-04T03:00:05.713Z,264.00
2018-06-04T03:01:05.714Z,280.00
2018-06-04T03:02:05.719Z,296.00
2018-06-04T03:03:05.717Z,312.00
2018-06-04T03:04:05.717Z,328.00
2018-06-04T03:05:05.718Z,340.00
2018-06-04T03:06:05.721Z,360.00
2018-06-04T03:07:05.718Z,376.00
2018-06-04T03:08:05.722Z,396.00
2018-06-04T03:09:05.727Z,412.00
2018-06-04T03:10:05.723Z,432.00
2018-06-04T03:11:05.721Z,452.00
2018-06-04T03:12:05.722Z,472.00
2018-06-04T03:13:05.718Z,492.00
2018-06-04T03:14:05.730Z,520.00
2018-06-04T03:15:05.730Z,540.00
2018-06-04T03:16:05.725Z,564.00
2018-06-04T03:17:05.732Z,584.00
2018-06-04T03:18:05.731Z,612.00
2018-06-04T03:19:05.727Z,636.00
2018-06-04T03:20:05.735Z,660.00
2018-06-04T03:21:05.730Z,688.00
2018-06-04T03:22:05.731Z,716.00
2018-06-04T03:23:05.739Z,744.00
2018-06-04T03:24:05.742Z,772.00
2018-06-04T03:25:05.734Z,804.00
2018-06-04T03:26:05.737Z,836.00
2018-06-04T03:27:05.742Z,872.00
2018-06-04T03:28:05.735Z,912.00
2018-06-04T03:29:05.738Z,952.00
2018-06-04T03:30:05.739Z,992.00
2018-06-04T03:31:05.735Z,1028.00
2018-06-04T03:32:05.740Z,1060.00
2018-06-04T03:33:05.736Z,1104.00
2018-06-04T03:34:05.739Z,1144.00
2018-06-04T03:35:05.740Z,1188.00
2018-06-04T03:36:05.741Z,1228.00
2018-06-04T03:37:05.746Z,1272.00
2018-06-04T03:38:05.745Z,1320.00
2018-06-04T03:39:05.745Z,1376.00
2018-06-04T03:40:05.750Z,1424.00
2018-06-04T03:41:05.746Z,1468.00
2018-06-04T03:42:05.756Z,1512.00
2018-06-04T03:43:05.749Z,1556.00
2018-06-04T03:44:05.757Z,1596.00
2018-06-04T03:45:05.752Z,1656.00
2018-06-04T03:46:05.753Z,1712.00
2018-06-04T03:47:05.754Z,1768.00
2018-06-04T03:48:05.755Z,1824.00
2018-06-04T03:49:05.756Z,1884.00
2018-06-04T03:50:05.757Z,1932.00
2018-06-04T03:51:05.755Z,1996.00
2018-06-04T03:52:05.802Z,2044.00
2018-06-04T03:53:05.761Z,2088.00
2018-06-04T03:54:05.761Z,2140.00
2018-06-04T03:55:05.762Z,2196.00
2018-06-04T03:56:05.766Z,2232.00
2018-06-04T03:57:05.770Z,2288.00
2018-06-04T03:58:05.767Z,2352.00
2018-06-04T03:59:05.768Z,2416.00
2018-06-04T04:00:05.769Z,2472.00
2018-06-04T04:01:05.774Z,2536.00
2018-06-04T04:02:05.772Z,2600.00
2018-06-04T04:03:05.778Z,2640.00
2018-06-04T04:04:05.775Z,2696.00
2018-06-04T04:05:05.787Z,2744.00
2018-06-04T04:06:05.782Z,2804.00
2018-06-04T04:07:05.781Z,2872.00
2018-06-04T04:08:05.783Z,2924.00
2018-06-04T04:09:05.781Z,2976.00
2018-06-04T04:10:05.785Z,3060.00
2018-06-04T04:11:05.785Z,3124.00
2018-06-04T04:12:05.787Z,3176.00
2018-06-04T04:13:05.795Z,3236.00
2018-06-04T04:14:05.795Z,3308.00
2018-06-04T04:15:05.793Z,3344.00
2018-06-04T04:16:05.795Z,3380.00
2018-06-04T04:17:05.798Z,3456.00
2018-06-04T04:18:05.798Z,3532.00
2018-06-04T04:19:05.800Z,3576.00
2018-06-04T04:20:05.803Z,3620.00
2018-06-04T04:21:05.808Z,3676.00
2018-06-04T04:22:05.807Z,3732.00
2018-06-04T04:23:05.811Z,3784.00
2018-06-04T04:24:05.818Z,3836.00
2018-06-04T04:25:05.815Z,3900.00
2018-06-04T04:26:05.820Z,3980.00
2018-06-04T04:27:05.820Z,4060.00
2018-06-04T04:28:05.821Z,4116.00
2018-06-04T04:29:05.819Z,4168.00
2018-06-04T04:30:05.828Z,4244.00
2018-06-04T04:31:05.825Z,4320.00
2018-06-04T04:32:05.831Z,4380.00
2018-06-04T04:33:05.829Z,4456.00
2018-06-04T04:34:05.834Z,4536.00
2018-06-04T04:35:05.841Z,4596.00
2018-06-04T04:36:05.838Z,4660.00
2018-06-04T04:37:05.845Z,4708.00
2018-06-04T04:38:05.854Z,4796.00
2018-06-04T04:39:05.848Z,4844.00
2018-06-04T04:40:05.855Z,4916.00
2018-06-04T04:41:05.854Z,4972.00
2018-06-04T04:42:05.858Z,5004.00
2018-06-04T04:43:05.860Z,5048.00
2018-06-04T04:44:05.864Z,5152.00
2018-06-04T04:45:05.871Z,5240.00
2018-06-04T04:46:05.868Z,5304.00
2018-06-04T04:47:05.873Z,5364.00
2018-06-04T04:48:05.878Z,5404.00
2018-06-04T04:49:05.883Z,5436.00
2018-06-04T04:50:05.881Z,5484.00
2018-06-04T04:51:05.886Z,5544.00
2018-06-04T04:52:05.889Z,5604.00
2018-06-04T04:53:05.891Z,5672.00
2018-06-04T04:54:05.893Z,5728.00
2018-06-04T04:55:05.896Z,5780.00
2018-06-04T04:56:05.904Z,5836.00
2018-06-04T04:57:05.900Z,5892.00
2018-06-04T04:58:05.906Z,5932.00
2018-06-04T04:59:05.905Z,5980.00
2018-06-04T05:00:05.909Z,6056.00
2018-06-04T05:01:05.916Z,6096.00
2018-06-04T05:02:05.919Z,6148.00
2018-06-04T05:03:05.926Z,6196.00
2018-06-04T05:04:05.928Z,6256.00
2018-06-04T05:05:05.933Z,6312.00
2018-06-04T05:06:05.937Z,6356.00
2018-06-04T05:07:05.940Z,6412.00
2018-06-04T05:08:05.944Z,6484.00
2018-06-04T05:09:05.953Z,6536.00
2018-06-04T05:10:05.954Z,6592.00
2018-06-04T05:11:05.955Z,6636.00
2018-06-04T05:12:05.960Z,6704.00
2018-06-04T05:13:05.965Z,6760.00
2018-06-04T05:14:05.973Z,6792.00
2018-06-04T05:15:05.972Z,6828.00
2018-06-04T05:16:05.978Z,6848.00
2018-06-04T05:17:05.985Z,6888.00
2018-06-04T05:18:05.988Z,6936.00
2018-06-04T05:19:05.994Z,6964.00
2018-06-04T05:20:06.015Z,7016.00
2018-06-04T05:21:06.003Z,7072.00
2018-06-04T05:22:06.004Z,7152.00
2018-06-04T05:23:06.011Z,7236.00
2018-06-04T05:24:06.018Z,7292.00
2018-06-04T05:25:06.023Z,7312.00
2018-06-04T05:26:06.030Z,7328.00
2018-06-04T05:27:06.028Z,7344.00
2018-06-04T05:28:06.039Z,7356.00
2018-06-04T05:29:06.035Z,7400.00
2018-06-04T05:30:06.042Z,7472.00
2018-06-04T05:31:06.046Z,7548.00
2018-06-04T05:32:06.052Z,7616.00
2018-06-04T05:33:06.062Z,7648.00
2018-06-04T05:34:06.069Z,7672.00
2018-06-04T05:35:06.068Z,7720.00
2018-06-04T05:36:06.075Z,7812.00
2018-06-04T05:37:06.086Z,7888.00
2018-06-04T05:38:06.085Z,7900.00
2018-06-04T05:39:06.085Z,7960.00
2018-06-04T05:40:06.095Z,8008.00
2018-06-04T05:41:06.105Z,8088.00
2018-06-04T05:42:06.105Z,8112.00
2018-06-04T05:43:06.106Z,8084.00
2018-06-04T05:44:06.114Z,8128.00
2018-06-04T05:45:06.120Z,8276.00
2018-06-04T05:46:06.125Z,8376.00
2018-06-04T05:47:06.131Z,8420.00
2018-06-04T05:48:06.146Z,8404.00
2018-06-04T05:49:06.142Z,8432.00
2018-06-04T05:50:06.144Z,8496.00
2018-06-04T05:51:06.149Z,8580.00
2018-06-04T05:52:06.155Z,8620.00
2018-06-04T05:53:06.161Z,8664.00
2018-06-04T05:54:06.168Z,8724.00
2018-06-04T05:55:06.173Z,8772.00
2018-06-04T05:56:06.179Z,8840.00
2018-06-04T05:57:06.197Z,8860.00
2018-06-04T05:58:06.200Z,8876.00
2018-06-04T05:59:06.197Z,8884.00
2018-06-04T06:00:06.241Z,8916.00
2018-06-04T06:01:06.209Z,8960.00
2018-06-04T06:02:06.212Z,8996.00
2018-06-04T06:03:06.219Z,9072.00
2018-06-04T06:04:06.224Z,9144.00
2018-06-04T06:05:06.236Z,9120.00
2018-06-04T06:06:06.237Z,9132.00
2018-06-04T06:07:06.243Z,9244.00
2018-06-04T06:08:06.248Z,9324.00
2018-06-04T06:09:06.263Z,9336.00
2018-06-04T06:10:06.262Z,9208.00
2018-06-04T06:11:06.265Z,9372.00
2018-06-04T06:12:06.273Z,9616.00
2018-06-04T06:13:06.278Z,9712.00
2018-06-04T06:14:06.313Z,9840.00
2018-06-04T06:15:06.293Z,9944.00
2018-06-04T06:16:06.302Z,9960.00
2018-06-04T06:17:06.307Z,9876.00
2018-06-04T06:18:06.322Z,10096.00
2018-06-04T06:19:06.317Z,10324.00
2018-06-04T06:20:06.323Z,10472.00
2018-06-04T06:21:06.331Z,10296.00
2018-06-04T06:22:06.335Z,10004.00
2018-06-04T06:23:06.341Z,10104.00
2018-06-04T06:24:06.346Z,10560.00
2018-06-04T06:25:06.360Z,10400.00
2018-06-04T06:26:06.359Z,10592.00
2018-06-04T06:27:06.367Z,10384.00
2018-06-04T06:28:06.372Z,10484.00
2018-06-04T06:29:06.378Z,10356.00
2018-06-04T06:30:06.388Z,10396.00
2018-06-04T06:31:06.391Z,10592.00
2018-06-04T06:32:06.396Z,10792.00
2018-06-04T06:33:06.404Z,10848.00
2018-06-04T06:34:06.410Z,10844.00
2018-06-04T06:35:06.417Z,10944.00
2018-06-04T06:36:06.422Z,10864.00
2018-06-04T06:37:06.430Z,10948.00
2018-06-04T06:38:06.439Z,10952.00
2018-06-04T06:39:06.445Z,11192.00
2018-06-04T06:40:06.451Z,11248.00
2018-06-04T06:41:06.457Z,11160.00
2018-06-04T06:42:06.466Z,9620.00
2018-06-04T06:43:06.498Z,11496.00
2018-06-04T06:44:06.479Z,11748.00
2018-06-04T06:45:06.486Z,11868.00
2018-06-04T06:46:06.493Z,11772.00
2018-06-04T06:47:06.499Z,11800.00
2018-06-04T06:48:06.507Z,12144.00
2018-06-04T06:49:06.514Z,12628.00
2018-06-04T06:50:06.556Z,17760.00
2018-06-04T06:51:06.528Z,28032.00
2018-06-04T06:52:06.538Z,33472.00
2018-06-04T06:53:06.543Z,32992.00
2018-06-04T06:54:06.551Z,34688.00
2018-06-04T06:55:06.556Z,35552.00
2018-06-04T06:56:06.569Z,33280.00
2018-06-04T06:57:06.578Z,33376.00
2018-06-04T06:58:06.589Z,35456.00
2018-06-04T06:59:06.589Z,36480.00
2018-06-04T07:00:06.600Z,35168.00
2018-06-04T07:01:06.602Z,36064.00
2018-06-04T07:02:06.615Z,35744.00
2018-06-04T07:03:06.618Z,33600.00
2018-06-04T07:04:06.625Z,34176.00
2018-06-04T07:05:06.639Z,36032.00
2018-06-04T07:06:06.647Z,37312.00
2018-06-04T07:07:06.652Z,37728.00
2018-06-04T07:08:06.661Z,38048.00
2018-06-04T07:09:06.671Z,38304.00
2018-06-04T07:10:06.678Z,37920.00
2018-06-04T07:11:06.688Z,40672.00
2018-06-04T07:12:06.693Z,43136.00
2018-06-04T07:13:06.703Z,41632.00
2018-06-04T07:14:06.710Z,38880.00
2018-06-04T07:15:06.716Z,39296.00
2018-06-04T07:16:06.730Z,43808.00
2018-06-04T07:17:06.740Z,37728.00
2018-06-04T07:18:06.749Z,38592.00
2018-06-04T07:19:06.757Z,40256.00
2018-06-04T07:20:06.770Z,45760.00
2018-06-04T07:21:06.778Z,49184.00
2018-06-04T07:22:06.785Z,42560.00
2018-06-04T07:23:06.793Z,40960.00
2018-06-04T07:24:06.806Z,43136.00
2018-06-04T07:25:06.813Z,46272.00
2018-06-04T07:26:06.822Z,47616.00
2018-06-04T07:27:06.831Z,42976.00
2018-06-04T07:28:06.842Z,43840.00
2018-06-04T07:29:06.852Z,48064.00
2018-06-04T07:30:06.869Z,47136.00
2018-06-04T07:31:06.876Z,46336.00
2018-06-04T07:32:06.879Z,47040.00
2018-06-04T07:33:06.888Z,46592.00
2018-06-04T07:34:06.893Z,48736.00
2018-06-04T07:35:06.910Z,49184.00
2018-06-04T07:36:06.918Z,49472.00
2018-06-04T07:37:06.925Z,54688.00
2018-06-04T07:38:06.934Z,57664.00
2018-06-04T07:39:06.943Z,55104.00
2018-06-04T07:40:06.949Z,51392.00
2018-06-04T07:41:06.995Z,48128.00
2018-06-04T07:42:06.971Z,49088.00
2018-06-04T07:43:06.980Z,55168.00
2018-06-04T07:44:06.989Z,59296.00
2018-06-04T07:45:07.000Z,53568.00
2018-06-04T07:46:07.009Z,47680.00
2018-06-04T07:47:07.016Z,42016.00
2018-06-04T07:48:07.023Z,45152.00
2018-06-04T07:49:07.036Z,44800.00
2018-06-04T07:50:07.048Z,46656.00
2018-06-04T07:51:07.051Z,41920.00
2018-06-04T07:52:07.059Z,39776.00
2018-06-04T07:53:07.069Z,40480.00
2018-06-04T07:54:07.078Z,41504.00
2018-06-04T07:55:07.086Z,41696.00
2018-06-04T07:56:07.146Z,39552.00
2018-06-04T07:57:07.106Z,39360.00
2018-06-04T07:58:07.113Z,41088.00
2018-06-04T07:59:07.122Z,43072.00
2018-06-04T08:00:07.132Z,46240.00
2018-06-04T08:01:07.141Z,49088.00
2018-06-04T08:02:07.152Z,51712.00
2018-06-04T08:03:07.159Z,49952.00
2018-06-04T08:04:07.174Z,49824.00
2018-06-04T08:05:07.181Z,56064.00
2018-06-04T08:06:07.198Z,60928.00
2018-06-04T08:07:07.198Z,60448.00
2018-06-04T08:08:07.206Z,55840.00
2018-06-04T08:09:07.215Z,49632.00
2018-06-04T08:10:07.293Z,49824.00
2018-06-04T08:11:07.242Z,55904.00
2018-06-04T08:12:07.249Z,61312.00
2018-06-04T08:13:07.255Z,59648.00
2018-06-04T08:14:07.261Z,48064.00
2018-06-04T08:15:07.269Z,58688.00
2018-06-04T08:16:07.279Z,53088.00
2018-06-04T08:17:07.290Z,11068.00
2018-06-04T08:18:07.299Z,10120.00
2018-06-04T08:19:07.308Z,12500.00
2018-06-04T08:20:07.317Z,62784.00
2018-06-04T08:21:07.328Z,60864.00
2018-06-04T08:22:07.340Z,64256.00
2018-06-04T08:23:07.342Z,65120.00
2018-06-04T08:24:07.360Z,65472.00
2018-06-04T08:25:07.373Z,65088.00
2018-06-04T08:26:07.374Z,62048.00
2018-06-04T08:27:07.406Z,59840.00
2018-06-04T08:28:07.394Z,61536.00
2018-06-04T08:29:07.400Z,65696.00
2018-06-04T08:30:07.410Z,60736.00
2018-06-04T08:31:07.418Z,15044.00
2018-06-04T08:32:07.430Z,13376.00
2018-06-04T08:33:07.439Z,11992.00
2018-06-04T08:34:07.447Z,65792.00
2018-06-04T08:35:07.458Z,61408.00
2018-06-04T08:36:07.465Z,60896.00
2018-06-04T08:37:07.472Z,68672.00
2018-06-04T08:38:07.501Z,73248.00
2018-06-04T08:39:07.494Z,72480.00
2018-06-04T08:40:07.507Z,67520.00
2018-06-04T08:41:07.516Z,65568.00
2018-06-04T08:42:07.525Z,65696.00
2018-06-04T08:43:07.534Z,65504.00
2018-06-04T08:44:07.549Z,75616.00
2018-06-04T08:45:07.559Z,83328.00
2018-06-04T08:46:07.566Z,78784.00
2018-06-04T08:47:07.576Z,57632.00
2018-06-04T08:48:07.593Z,49504.00
2018-06-04T08:49:07.604Z,61152.00
2018-06-04T08:50:07.611Z,15756.00
2018-06-04T08:51:07.623Z,66432.00
2018-06-04T08:52:07.632Z,42560.00
2018-06-04T08:53:07.652Z,51264.00
2018-06-04T08:54:07.655Z,57376.00
2018-06-04T08:55:07.664Z,75168.00
2018-06-04T08:56:07.675Z,50496.00
2018-06-04T08:57:07.685Z,14740.00
2018-06-04T08:58:07.704Z,13092.00
2018-06-04T08:59:07.715Z,12848.00
2018-06-04T09:00:07.725Z,12228.00
2018-06-04T09:01:07.735Z,10708.00
2018-06-04T09:02:07.748Z,10732.00
2018-06-04T09:03:07.749Z,11292.00
2018-06-04T09:04:07.762Z,12520.00
2018-06-04T09:05:07.771Z,12600.00
2018-06-04T09:06:07.784Z,11784.00
2018-06-04T09:07:07.791Z,11660.00
2018-06-04T09:08:07.800Z,9800.00
2018-06-04T09:09:07.806Z,8344.00
2018-06-04T09:10:07.823Z,7164.00
2018-06-04T09:11:07.829Z,6416.00
2018-06-04T09:12:07.837Z,5816.00
2018-06-04T09:13:07.849Z,6144.00
2018-06-04T09:14:07.855Z,7560.00
2018-06-04T09:15:07.862Z,9844.00
2018-06-04T09:16:07.873Z,10292.00
2018-06-04T09:17:07.879Z,11452.00
2018-06-04T09:18:07.887Z,12576.00
2018-06-04T09:19:07.895Z,11920.00
2018-06-04T09:20:07.901Z,11008.00
2018-06-04T09:21:07.908Z,9880.00
2018-06-04T09:22:08.001Z,9536.00
2018-06-04T09:23:07.923Z,10516.00
2018-06-04T09:24:07.932Z,11876.00
2018-06-04T09:25:07.946Z,12580.00
2018-06-04T09:26:07.952Z,13080.00
2018-06-04T09:27:07.961Z,12696.00
2018-06-04T09:28:07.962Z,11940.00
2018-06-04T09:29:07.973Z,12256.00
2018-06-04T09:30:07.979Z,11556.00
2018-06-04T09:31:07.986Z,10964.00
2018-06-04T09:32:07.992Z,10700.00
2018-06-04T09:33:07.998Z,9888.00
2018-06-04T09:34:08.004Z,9504.00
2018-06-04T09:35:08.012Z,9656.00
2018-06-04T09:36:08.018Z,10172.00
2018-06-04T09:37:08.025Z,10728.00
2018-06-04T09:38:08.032Z,10888.00
2018-06-04T09:39:08.038Z,10980.00
2018-06-04T09:40:08.099Z,12252.00
2018-06-04T09:41:08.052Z,12172.00
2018-06-04T09:42:08.058Z,10460.00
2018-06-04T09:43:08.058Z,8296.00
2018-06-04T09:44:08.064Z,7144.00
2018-06-04T09:45:08.077Z,8252.00
2018-06-04T09:46:08.081Z,8756.00
2018-06-04T09:47:08.084Z,9088.00
2018-06-04T09:48:08.091Z,9224.00
2018-06-04T09:49:08.096Z,8084.00
2018-06-04T09:50:08.103Z,7644.00
2018-06-04T09:51:08.107Z,8364.00
2018-06-04T09:52:08.116Z,9080.00
2018-06-04T09:53:08.128Z,10232.00
2018-06-04T09:54:08.186Z,10252.00
2018-06-04T09:55:08.135Z,10612.00
2018-06-04T09:56:08.140Z,10568.00
2018-06-04T09:57:08.146Z,10300.00
2018-06-04T09:58:08.153Z,11112.00
2018-06-04T09:59:08.159Z,11584.00
2018-06-04T10:00:08.163Z,11436.00
2018-06-04T10:01:08.173Z,9916.00
2018-06-04T10:02:08.178Z,9004.00
2018-06-04T10:03:08.181Z,8700.00
2018-06-04T10:04:08.191Z,8656.00
2018-06-04T10:05:08.194Z,8576.00
2018-06-04T10:06:08.203Z,8936.00
2018-06-04T10:07:08.204Z,9612.00
2018-06-04T10:08:08.212Z,9448.00
2018-06-04T10:09:08.219Z,9420.00
2018-06-04T10:10:08.225Z,9300.00
2018-06-04T10:11:08.230Z,9044.00
2018-06-04T10:12:08.237Z,9580.00
2018-06-04T10:13:08.243Z,9656.00
2018-06-04T10:14:08.251Z,9288.00
2018-06-04T10:15:08.253Z,9236.00
2018-06-04T10:16:08.263Z,9384.00
2018-06-04T10:17:08.267Z,9460.00
2018-06-04T10:18:08.275Z,9280.00
2018-06-04T10:19:08.280Z,8976.00
2018-06-04T10:20:08.289Z,8984.00
2018-06-04T10:21:08.289Z,10020.00
2018-06-04T10:22:08.299Z,11132.00
2018-06-04T10:23:08.304Z,11228.00
2018-06-04T10:24:08.307Z,11068.00
2018-06-04T10:25:08.314Z,10632.00
2018-06-04T10:26:08.321Z,10884.00
2018-06-04T10:27:08.331Z,10692.00
2018-06-04T10:28:08.334Z,10504.00
2018-06-04T10:29:08.340Z,10488.00
2018-06-04T10:30:08.353Z,10612.00
2018-06-04T10:31:08.353Z,10540.00
2018-06-04T10:32:08.359Z,9940.00
2018-06-04T10:33:08.371Z,9220.00
2018-06-04T10:34:08.373Z,9416.00
2018-06-04T10:35:08.379Z,9980.00
2018-06-04T10:36:08.385Z,10364.00
2018-06-04T10:37:08.391Z,10672.00
2018-06-04T10:38:08.398Z,10668.00
2018-06-04T10:39:08.404Z,9856.00
2018-06-04T10:40:08.413Z,8988.00
2018-06-04T10:41:08.417Z,8440.00
2018-06-04T10:42:08.423Z,8140.00
2018-06-04T10:43:08.423Z,8104.00
2018-06-04T10:44:08.439Z,8084.00
2018-06-04T10:45:08.443Z,8572.00
2018-06-04T10:46:08.451Z,8768.00
2018-06-04T10:47:08.454Z,8716.00
2018-06-04T10:48:08.460Z,8788.00
2018-06-04T10:49:08.466Z,9296.00
2018-06-04T10:50:08.474Z,9312.00
2018-06-04T10:51:08.520Z,9620.00
2018-06-04T10:52:08.483Z,9448.00
2018-06-04T10:53:08.531Z,8796.00
2018-06-04T10:54:08.496Z,8592.00
2018-06-04T10:55:08.505Z,8792.00
2018-06-04T10:56:08.507Z,8944.00
2018-06-04T10:57:08.512Z,9168.00
2018-06-04T10:58:08.519Z,9108.00
2018-06-04T10:59:08.525Z,8852.00
2018-06-04T11:00:08.531Z,7644.00
2018-06-04T11:01:08.539Z,6356.00
2018-06-04T11:02:08.543Z,5788.00
2018-06-04T11:03:08.547Z,5852.00
2018-06-04T11:04:08.620Z,6528.00
2018-06-04T11:05:08.560Z,6636.00
2018-06-04T11:06:08.567Z,7088.00
2018-06-04T11:07:08.572Z,7540.00
2018-06-04T11:08:08.584Z,8068.00
2018-06-04T11:09:08.582Z,8208.00
2018-06-04T11:10:08.589Z,8436.00
2018-06-04T11:11:08.596Z,8736.00
2018-06-04T11:12:08.602Z,8776.00
2018-06-04T11:13:08.649Z,8708.00
2018-06-04T11:14:08.614Z,8608.00
2018-06-04T11:15:08.623Z,8676.00
2018-06-04T11:16:08.623Z,8648.00
2018-06-04T11:17:08.629Z,8660.00
2018-06-04T11:18:08.635Z,8644.00
2018-06-04T11:19:08.642Z,8724.00
2018-06-04T11:20:08.648Z,8788.00
2018-06-04T11:21:08.656Z,8896.00
2018-06-04T11:22:08.659Z,8896.00
2018-06-04T11:23:08.664Z,8908.00
2018-06-04T11:24:08.667Z,9012.00
2018-06-04T11:25:08.678Z,8984.00
2018-06-04T11:26:08.682Z,9016.00
2018-06-04T11:27:08.686Z,9072.00
2018-06-04T11:28:08.694Z,9252.00
2018-06-04T11:29:08.698Z,9652.00
2018-06-04T11:30:08.708Z,9828.00
2018-06-04T11:31:08.711Z,9948.00
2018-06-04T11:32:08.716Z,10156.00
2018-06-04T11:33:08.724Z,10316.00
2018-06-04T11:34:08.729Z,10072.00
2018-06-04T11:35:08.756Z,9900.00
2018-06-04T11:36:08.743Z,9468.00
2018-06-04T11:37:08.747Z,9208.00
2018-06-04T11:38:08.754Z,9016.00
2018-06-04T11:39:08.760Z,9496.00
2018-06-04T11:40:08.835Z,9604.00
2018-06-04T11:41:08.772Z,9608.00
2018-06-04T11:42:08.779Z,9504.00
2018-06-04T11:43:08.780Z,9328.00
2018-06-04T11:44:08.792Z,9628.00
2018-06-04T11:45:08.798Z,9588.00
2018-06-04T11:46:08.803Z,9556.00
2018-06-04T11:47:08.810Z,9688.00
2018-06-04T11:48:08.814Z,9888.00
2018-06-04T11:49:08.821Z,9976.00
2018-06-04T11:50:08.834Z,10024.00
2018-06-04T11:51:08.897Z,10040.00
2018-06-04T11:52:08.844Z,10056.00
2018-06-04T11:53:08.846Z,9896.00
2018-06-04T11:54:08.917Z,9608.00
2018-06-04T11:55:08.863Z,9120.00
2018-06-04T11:56:08.864Z,9044.00
2018-06-04T11:57:08.870Z,8864.00
2018-06-04T11:58:08.877Z,8904.00
2018-06-04T11:59:08.885Z,9004.00
2018-06-04T12:00:08.889Z,9096.00
2018-06-04T12:01:08.895Z,9148.00
2018-06-04T12:02:08.900Z,9132.00
2018-06-04T12:03:08.961Z,8872.00
2018-06-04T12:04:08.912Z,8616.00
2018-06-04T12:05:08.928Z,7936.00
2018-06-04T12:06:08.926Z,7296.00
2018-06-04T12:07:08.941Z,6744.00
2018-06-04T12:08:08.939Z,6708.00
2018-06-04T12:09:08.944Z,7028.00
2018-06-04T12:10:08.955Z,7416.00
2018-06-04T12:11:08.960Z,7988.00
2018-06-04T12:12:08.964Z,8440.00
2018-06-04T12:13:08.972Z,8936.00
2018-06-04T12:14:08.976Z,9516.00